sensor_id;sensor_type;location;lat;lon;timestamp;P1;P4;P2;P0;N10;N4;N25;N1;N05;TS
82394;SPS30;72031;51.786;4.662;2023-12-20T00:00:42;6.04;5.39;4.05;2.33;18.70;18.63;18.31;16.73;11.92;0.82
82394;SPS30;72031;51.786;4.662;2023-12-20T00:03:08;6.65;5.94;4.48;2.60;20.82;20.74;20.39;18.66;13.35;0.83
82394;SPS30;72031;51.786;4.662;2023-12-20T00:05:34;7.22;6.42;4.77;2.65;21.26;21.16;20.77;18.82;13.12;0.87
82394;SPS30;72031;51.786;4.662;2023-12-20T00:08:03;6.94;6.21;4.70;2.75;22.06;21.98;21.62;19.84;14.27;0.83
82394;SPS30;72031;51.786;4.662;2023-12-20T00:10:31;6.48;5.82;4.45;2.67;21.41;21.33;21.01;19.39;14.15;0.82
82394;SPS30;72031;51.786;4.662;2023-12-20T00:12:56;6.49;5.80;4.40;2.58;20.67;20.59;20.26;18.59;13.39;0.85
82394;SPS30;72031;51.786;4.662;2023-12-20T00:15:22;7.40;6.63;5.03;2.98;23.85;23.76;23.38;21.50;15.55;0.83
82394;SPS30;72031;51.786;4.662;2023-12-20T00:17:48;7.31;6.56;5.02;3.01;24.14;24.05;23.68;21.85;15.94;0.82
82394;SPS30;72031;51.786;4.662;2023-12-20T00:20:13;6.54;5.88;4.51;2.73;21.90;21.82;21.50;19.88;14.58;0.81
82394;SPS30;72031;51.786;4.662;2023-12-20T00:22:38;7.17;6.44;4.93;2.97;23.84;23.75;23.40;21.61;15.81;0.82
82394;SPS30;72031;51.786;4.662;2023-12-20T00:25:04;7.14;6.40;4.89;2.92;23.40;23.31;22.95;21.16;15.40;0.82
82394;SPS30;72031;51.786;4.662;2023-12-20T00:27:30;6.78;6.08;4.65;2.79;22.33;22.25;21.91;20.21;14.73;0.80
82394;SPS30;72031;51.786;4.662;2023-12-20T00:29:55;7.13;6.41;4.92;2.98;23.86;23.77;23.42;21.65;15.87;0.78
82394;SPS30;72031;51.786;4.662;2023-12-20T00:32:21;6.96;6.26;4.82;2.93;23.51;23.43;23.08;21.37;15.72;0.77
82394;SPS30;72031;51.786;4.662;2023-12-20T00:34:46;7.29;6.55;5.04;3.07;24.56;24.48;24.12;22.32;16.41;0.77
82394;SPS30;72031;51.786;4.662;2023-12-20T00:37:12;7.69;6.88;5.23;3.10;24.81;24.72;24.33;22.37;16.19;0.79
82394;SPS30;72031;51.786;4.662;2023-12-20T00:39:37;8.01;7.16;5.43;3.19;25.54;25.44;25.03;22.97;16.55;0.80
82394;SPS30;72031;51.786;4.662;2023-12-20T00:42:04;7.69;6.88;5.22;3.07;24.60;24.50;24.11;22.14;15.97;0.80
82394;SPS30;72031;51.786;4.662;2023-12-20T00:44:30;7.20;6.47;4.96;3.00;24.04;23.95;23.59;21.80;15.97;0.79
82394;SPS30;72031;51.786;4.662;2023-12-20T00:46:55;8.28;7.44;5.72;3.48;27.90;27.80;27.39;25.35;18.64;0.79
82394;SPS30;72031;51.786;4.662;2023-12-20T00:49:21;7.15;6.45;5.01;3.13;25.09;25.01;24.67;22.96;17.11;0.78
82394;SPS30;72031;51.786;4.662;2023-12-20T00:51:46;6.71;6.08;4.79;3.07;24.62;24.54;24.23;22.69;17.14;0.76
82394;SPS30;72031;51.786;4.662;2023-12-20T00:54:13;6.88;6.23;4.89;3.12;24.98;24.90;24.58;22.98;17.31;0.76
82394;SPS30;72031;51.786;4.662;2023-12-20T00:56:40;7.14;6.51;5.21;3.47;27.75;27.67;27.36;25.80;19.81;0.72
82394;SPS30;72031;51.786;4.662;2023-12-20T00:59:05;6.49;5.93;4.80;3.26;26.11;26.05;25.78;24.41;18.92;0.72
82394;SPS30;72031;51.786;4.662;2023-12-20T01:01:31;6.97;6.37;5.16;3.51;28.09;28.02;27.73;26.27;20.37;0.72
82394;SPS30;72031;51.786;4.662;2023-12-20T01:03:58;6.95;6.36;5.17;3.55;28.42;28.35;28.07;26.63;20.73;0.71
82394;SPS30;72031;51.786;4.662;2023-12-20T01:06:23;6.87;6.27;5.04;3.39;27.11;27.04;26.75;25.27;19.49;0.73
82394;SPS30;72031;51.786;4.662;2023-12-20T01:08:50;7.19;6.61;5.41;3.77;30.17;30.10;29.81;28.36;22.21;0.70
82394;SPS30;72031;51.786;4.662;2023-12-20T01:11:15;6.17;5.68;4.68;3.29;26.36;26.30;26.06;24.84;19.54;0.69
82394;SPS30;72031;51.786;4.662;2023-12-20T01:13:41;6.42;5.92;4.90;3.49;27.89;27.83;27.59;26.35;20.81;0.68
82394;SPS30;72031;51.786;4.662;2023-12-20T01:16:08;6.94;6.34;5.12;3.47;27.78;27.71;27.41;25.95;20.08;0.72
82394;SPS30;72031;51.786;4.662;2023-12-20T01:18:35;8.22;7.46;5.91;3.84;30.74;30.65;30.28;28.42;21.59;0.74
82394;SPS30;72031;51.786;4.662;2023-12-20T01:21:01;8.28;7.50;5.88;3.75;30.02;29.92;29.54;27.61;20.78;0.74
82394;SPS30;72031;51.786;4.662;2023-12-20T01:23:28;8.19;7.39;5.75;3.60;28.81;28.72;28.33;26.37;19.66;0.75
82394;SPS30;72031;51.786;4.662;2023-12-20T01:25:54;8.98;8.09;6.25;3.85;30.83;30.73;30.29;28.11;20.79;0.77
82394;SPS30;72031;51.786;4.662;2023-12-20T01:28:20;8.17;7.42;5.88;3.83;30.64;30.56;30.19;28.34;21.55;0.73
82394;SPS30;72031;51.786;4.662;2023-12-20T01:30:45;8.07;7.34;5.84;3.84;30.72;30.63;30.27;28.48;21.75;0.73
82394;SPS30;72031;51.786;4.662;2023-12-20T01:33:11;7.77;7.05;5.58;3.62;28.97;28.89;28.53;26.77;20.32;0.75
82394;SPS30;72031;51.786;4.662;2023-12-20T01:35:36;8.47;7.68;6.05;3.90;31.26;31.17;30.78;28.85;21.83;0.76
82394;SPS30;72031;51.786;4.662;2023-12-20T01:38:02;8.04;7.29;5.77;3.74;29.97;29.89;29.52;27.70;21.02;0.76
82394;SPS30;72031;51.786;4.662;2023-12-20T01:40:28;8.55;7.76;6.12;3.95;31.66;31.56;31.17;29.22;22.13;0.75
82394;SPS30;72031;51.786;4.662;2023-12-20T01:42:57;8.63;7.86;6.27;4.14;33.16;33.07;32.69;30.79;23.57;0.72
82394;SPS30;72031;51.786;4.662;2023-12-20T01:45:24;8.30;7.57;6.07;4.06;32.49;32.40;32.04;30.25;23.28;0.72
82394;SPS30;72031;51.786;4.662;2023-12-20T01:47:50;8.80;7.95;6.19;3.88;31.08;30.98;30.56;28.47;21.25;0.76
82394;SPS30;72031;51.786;4.662;2023-12-20T01:50:17;8.68;7.84;6.11;3.83;30.67;30.57;30.16;28.10;20.98;0.76
82394;SPS30;72031;51.786;4.662;2023-12-20T01:52:43;7.90;7.15;5.61;3.57;28.61;28.52;28.15;26.32;19.80;0.74
82394;SPS30;72031;51.786;4.662;2023-12-20T01:55:10;8.47;7.63;5.90;3.64;29.20;29.10;28.69;26.64;19.73;0.77
82394;SPS30;72031;51.786;4.662;2023-12-20T01:57:40;8.64;7.78;6.02;3.71;29.73;29.63;29.21;27.12;20.07;0.78
82394;SPS30;72031;51.786;4.662;2023-12-20T02:00:06;8.20;7.38;5.71;3.53;28.29;28.19;27.79;25.81;19.12;0.78
82394;SPS30;72031;51.786;4.662;2023-12-20T02:02:35;8.56;7.69;5.91;3.59;28.75;28.65;28.23;26.11;19.17;0.80
82394;SPS30;72031;51.786;4.662;2023-12-20T02:05:08;9.12;8.15;6.18;3.62;29.02;28.91;28.44;26.10;18.79;0.81
82394;SPS30;72031;51.786;4.662;2023-12-20T02:07:35;9.35;8.35;6.30;3.66;29.36;29.25;28.76;26.34;18.87;0.82
82394;SPS30;72031;51.786;4.662;2023-12-20T02:10:01;8.78;7.88;6.05;3.65;29.28;29.18;28.74;26.56;19.45;0.78
82394;SPS30;72031;51.786;4.662;2023-12-20T02:12:26;8.96;8.06;6.22;3.82;30.60;30.49;30.06;27.87;20.58;0.78
82394;SPS30;72031;51.786;4.662;2023-12-20T02:14:52;9.07;8.13;6.20;3.70;29.63;29.52;29.06;26.77;19.46;0.81
82394;SPS30;72031;51.786;4.662;2023-12-20T02:17:19;9.30;8.30;6.23;3.58;28.69;28.57;28.08;25.65;18.24;0.84
82394;SPS30;72031;51.786;4.662;2023-12-20T02:19:45;8.18;7.31;5.52;3.21;25.74;25.64;25.21;23.10;16.55;0.82
82394;SPS30;72031;51.786;4.662;2023-12-20T02:22:12;9.18;8.19;6.16;3.55;28.48;28.37;27.88;25.49;18.17;0.83
82394;SPS30;72031;51.786;4.662;2023-12-20T02:24:38;10.36;9.20;6.82;3.78;30.32;30.19;29.63;26.82;18.65;0.86
82394;SPS30;72031;51.786;4.662;2023-12-20T02:27:05;10.37;9.19;6.76;3.67;29.44;29.31;28.73;25.87;17.75;0.88
82394;SPS30;72031;51.786;4.662;2023-12-20T02:29:34;9.64;8.60;6.48;3.75;30.09;29.97;29.47;26.97;19.27;0.84
82394;SPS30;72031;51.786;4.662;2023-12-20T02:32:00;10.70;9.51;7.07;3.95;31.67;31.53;30.95;28.07;19.62;0.86
82394;SPS30;72031;51.786;4.662;2023-12-20T02:34:28;11.25;9.99;7.40;4.10;32.85;32.70;32.09;29.04;20.18;0.85
82394;SPS30;72031;51.786;4.662;2023-12-20T02:36:54;10.52;9.31;6.83;3.68;29.49;29.35;28.76;25.84;17.62;0.87
82394;SPS30;72031;51.786;4.662;2023-12-20T02:39:19;11.21;9.92;7.28;3.92;31.49;31.34;30.71;27.61;18.84;0.88
82394;SPS30;72031;51.786;4.662;2023-12-20T02:41:46;10.09;8.93;6.56;3.53;28.35;28.22;27.66;24.86;16.97;0.89
82394;SPS30;72031;51.786;4.662;2023-12-20T02:44:12;11.02;9.73;7.08;3.71;29.80;29.65;29.02;25.90;17.34;0.92
82394;SPS30;72031;51.786;4.662;2023-12-20T02:46:37;9.63;8.54;6.31;3.47;27.84;27.72;27.19;24.56;16.99;0.88
82394;SPS30;72031;51.786;4.662;2023-12-20T02:49:03;10.28;9.12;6.74;3.70;29.71;29.58;29.02;26.21;18.13;0.88
82394;SPS30;72031;51.786;4.662;2023-12-20T02:51:28;10.64;9.44;6.98;3.83;30.76;30.62;30.04;27.13;18.76;0.88
82394;SPS30;72031;51.786;4.662;2023-12-20T02:53:54;9.17;8.12;5.97;3.23;25.91;25.79;25.28;22.74;15.56;0.89
82394;SPS30;72031;51.786;4.662;2023-12-20T02:56:20;9.01;7.99;5.90;3.24;25.99;25.87;25.38;22.92;15.84;0.87
82394;SPS30;72031;51.786;4.662;2023-12-20T02:58:46;9.29;8.26;6.17;3.48;27.88;27.76;27.26;24.79;17.43;0.85
82394;SPS30;72031;51.786;4.662;2023-12-20T03:01:12;9.83;8.68;6.33;3.34;26.80;26.67;26.11;23.34;15.70;0.89
82394;SPS30;72031;51.786;4.662;2023-12-20T03:03:38;10.68;9.42;6.83;3.56;28.56;28.42;27.81;24.77;16.49;0.89
82394;SPS30;72031;51.786;4.662;2023-12-20T03:06:03;10.01;8.86;6.51;3.51;28.19;28.06;27.50;24.73;16.90;0.87
82394;SPS30;72031;51.786;4.662;2023-12-20T03:08:29;9.26;8.23;6.12;3.42;27.40;27.28;26.78;24.29;16.98;0.85
82394;SPS30;72031;51.786;4.662;2023-12-20T03:10:54;9.52;8.48;6.34;3.60;28.90;28.78;28.28;25.76;18.20;0.84
82394;SPS30;72031;51.786;4.662;2023-12-20T03:13:20;8.91;7.99;6.12;3.69;29.55;29.44;29.00;26.78;19.58;0.80
82394;SPS30;72031;51.786;4.662;2023-12-20T03:15:45;8.78;7.88;6.04;3.64;29.16;29.05;28.61;26.43;19.32;0.81
82394;SPS30;72031;51.786;4.662;2023-12-20T03:18:11;11.02;9.78;7.22;3.95;31.71;31.57;30.96;27.95;19.29;0.87
82394;SPS30;72031;51.786;4.662;2023-12-20T03:20:37;11.45;10.17;7.53;4.16;33.36;33.21;32.59;29.47;20.45;0.85
82394;SPS30;72031;51.786;4.662;2023-12-20T03:23:03;10.60;9.48;7.17;4.18;33.55;33.42;32.87;30.13;21.65;0.82
82394;SPS30;72031;51.786;4.662;2023-12-20T03:25:29;10.06;8.97;6.72;3.84;30.82;30.69;30.16;27.51;19.51;0.83
82394;SPS30;72031;51.786;4.662;2023-12-20T03:27:55;10.22;9.11;6.84;3.93;31.49;31.36;30.82;28.14;20.01;0.83
82394;SPS30;72031;51.786;4.662;2023-12-20T03:30:21;9.62;8.55;6.35;3.53;28.34;28.21;27.69;25.09;17.50;0.85
82394;SPS30;72031;51.786;4.662;2023-12-20T03:32:46;10.62;9.42;6.95;3.81;30.53;30.39;29.80;26.90;18.55;0.86
82394;SPS30;72031;51.786;4.662;2023-12-20T03:35:12;10.16;9.02;6.67;3.68;29.51;29.38;28.83;26.06;18.06;0.85
82394;SPS30;72031;51.786;4.662;2023-12-20T03:37:38;9.72;8.67;6.52;3.75;30.11;29.98;29.47;26.93;19.19;0.82
82394;SPS30;72031;51.786;4.662;2023-12-20T03:40:04;10.32;9.17;6.81;3.78;30.33;30.20;29.64;26.85;18.70;0.87
82394;SPS30;72031;51.786;4.662;2023-12-20T03:42:30;10.88;9.64;7.09;3.85;30.85;30.70;30.10;27.10;18.58;0.89
82394;SPS30;72031;51.786;4.662;2023-12-20T03:44:56;10.46;9.25;6.75;3.58;28.74;28.60;28.01;25.07;16.92;0.89
82394;SPS30;72031;51.786;4.662;2023-12-20T03:47:22;10.43;9.24;6.81;3.71;29.74;29.60;29.03;26.16;17.98;0.88
82394;SPS30;72031;51.786;4.662;2023-12-20T03:49:48;10.19;9.06;6.74;3.76;30.16;30.03;29.48;26.74;18.68;0.86
82394;SPS30;72031;51.786;4.662;2023-12-20T03:52:13;9.50;8.50;6.44;3.79;30.36;30.24;29.75;27.32;19.70;0.83
82394;SPS30;72031;51.786;4.662;2023-12-20T03:54:39;10.73;9.58;7.23;4.19;33.57;33.44;32.88;30.09;21.52;0.84
82394;SPS30;72031;51.786;4.662;2023-12-20T03:57:08;10.45;9.27;6.84;3.75;30.07;29.93;29.36;26.50;18.29;0.87
82394;SPS30;72031;51.786;4.662;2023-12-20T03:59:37;10.37;9.21;6.83;3.79;30.44;30.30;29.74;26.94;18.76;0.87
82394;SPS30;72031;51.786;4.662;2023-12-20T04:02:03;11.37;10.05;7.34;3.90;31.29;31.13;30.49;27.31;18.45;0.90
82394;SPS30;72031;51.786;4.662;2023-12-20T04:04:29;12.55;11.04;7.94;4.03;32.39;32.21;31.48;27.84;18.18;0.93
82394;SPS30;72031;51.786;4.662;2023-12-20T04:07:00;11.89;10.51;7.67;4.08;32.71;32.55;31.88;28.55;19.28;0.89
82394;SPS30;72031;51.786;4.662;2023-12-20T04:09:27;10.47;9.30;6.91;3.85;30.87;30.74;30.17;27.35;19.09;0.86
82394;SPS30;72031;51.786;4.662;2023-12-20T04:11:52;10.47;9.32;6.97;3.94;31.59;31.45;30.90;28.11;19.81;0.86
82394;SPS30;72031;51.786;4.662;2023-12-20T04:14:18;11.29;10.03;7.45;4.15;33.28;33.13;32.52;29.47;20.56;0.86
82394;SPS30;72031;51.786;4.662;2023-12-20T04:16:43;10.24;9.06;6.65;3.59;28.80;28.66;28.09;25.26;17.25;0.89
82394;SPS30;72031;51.786;4.662;2023-12-20T04:19:09;10.32;9.15;6.73;3.65;29.25;29.11;28.54;25.69;17.60;0.87
82394;SPS30;72031;51.786;4.662;2023-12-20T04:21:34;11.08;9.81;7.22;3.92;31.43;31.28;30.67;27.61;18.93;0.87
82394;SPS30;72031;51.786;4.662;2023-12-20T04:24:00;9.06;8.08;6.07;3.49;27.96;27.84;27.37;24.99;17.77;0.82
82394;SPS30;72031;51.786;4.662;2023-12-20T04:26:25;9.39;8.41;6.38;3.76;30.11;30.00;29.52;27.12;19.57;0.81
82394;SPS30;72031;51.786;4.662;2023-12-20T04:28:51;10.33;9.17;6.79;3.75;30.06;29.92;29.36;26.55;18.42;0.85
82394;SPS30;72031;51.786;4.662;2023-12-20T04:31:18;9.68;8.59;6.35;3.50;28.05;27.92;27.39;24.75;17.13;0.86
82394;SPS30;72031;51.786;4.662;2023-12-20T04:33:43;9.84;8.74;6.48;3.60;28.85;28.72;28.19;25.53;17.77;0.88
82394;SPS30;72031;51.786;4.662;2023-12-20T04:36:09;9.23;8.27;6.30;3.75;30.05;29.94;29.47;27.14;19.71;0.82
82394;SPS30;72031;51.786;4.662;2023-12-20T04:38:34;9.33;8.38;6.43;3.88;31.13;31.01;30.55;28.23;20.67;0.80
82394;SPS30;72031;51.786;4.662;2023-12-20T04:41:01;8.45;7.57;5.77;3.43;27.47;27.37;26.94;24.80;17.99;0.82
82394;SPS30;72031;51.786;4.662;2023-12-20T04:43:27;9.46;8.42;6.28;3.54;28.35;28.23;27.72;25.20;17.70;0.84
82394;SPS30;72031;51.786;4.662;2023-12-20T04:45:53;10.30;9.18;6.86;3.88;31.15;31.02;30.47;27.73;19.56;0.84
82394;SPS30;72031;51.786;4.662;2023-12-20T04:48:18;9.97;8.88;6.65;3.78;30.31;30.18;29.65;27.01;19.09;0.86
82394;SPS30;72031;51.786;4.662;2023-12-20T04:50:44;10.32;9.17;6.79;3.75;30.10;29.97;29.41;26.60;18.47;0.88
82394;SPS30;72031;51.786;4.662;2023-12-20T04:53:12;10.21;9.07;6.73;3.74;30.00;29.87;29.32;26.56;18.51;0.86
82394;SPS30;72031;51.786;4.662;2023-12-20T04:55:38;10.07;8.97;6.73;3.84;30.78;30.65;30.12;27.46;19.46;0.83
82394;SPS30;72031;51.786;4.662;2023-12-20T04:58:04;9.80;8.74;6.56;3.75;30.10;29.97;29.46;26.88;19.08;0.84
82394;SPS30;72031;51.786;4.662;2023-12-20T05:00:30;10.67;9.47;7.02;3.88;31.15;31.01;30.43;27.54;19.13;0.86
82394;SPS30;72031;51.786;4.662;2023-12-20T05:02:56;11.21;9.97;7.43;4.17;33.48;33.33;32.73;29.74;20.87;0.84
82394;SPS30;72031;51.786;4.662;2023-12-20T05:05:22;10.88;9.70;7.28;4.17;33.45;33.31;32.74;29.88;21.23;0.84
82394;SPS30;72031;51.786;4.662;2023-12-20T05:07:49;11.01;9.78;7.25;4.02;32.22;32.07;31.47;28.49;19.82;0.86
82394;SPS30;72031;51.786;4.662;2023-12-20T05:10:15;10.34;9.19;6.83;3.82;30.63;30.49;29.94;27.16;18.99;0.84
82394;SPS30;72031;51.786;4.662;2023-12-20T05:12:41;9.54;8.58;6.60;4.01;32.16;32.05;31.58;29.23;21.48;0.78
82394;SPS30;72031;51.786;4.662;2023-12-20T05:15:07;9.01;8.09;6.20;3.75;30.03;29.92;29.48;27.24;19.94;0.79
82394;SPS30;72031;51.786;4.662;2023-12-20T05:17:33;9.96;8.91;6.75;3.97;31.80;31.68;31.17;28.62;20.63;0.82
82394;SPS30;72031;51.786;4.662;2023-12-20T05:19:59;10.63;9.46;7.08;4.01;32.18;32.04;31.48;28.66;20.22;0.84
82394;SPS30;72031;51.786;4.662;2023-12-20T05:22:25;9.64;8.57;6.37;3.55;28.48;28.36;27.84;25.24;17.62;0.86
82394;SPS30;72031;51.786;4.662;2023-12-20T05:24:52;9.60;8.50;6.22;3.33;26.76;26.63;26.09;23.42;15.92;0.88
82394;SPS30;72031;51.786;4.662;2023-12-20T05:27:18;10.67;9.42;6.86;3.62;29.03;28.88;28.28;25.27;16.98;0.89
82394;SPS30;72031;51.786;4.662;2023-12-20T05:29:45;8.73;7.73;5.69;3.09;24.79;24.68;24.19;21.79;14.95;0.86
82394;SPS30;72031;51.786;4.662;2023-12-20T05:32:10;11.47;10.12;7.34;3.83;30.77;30.61;29.96;26.70;17.80;0.89
82394;SPS30;72031;51.786;4.662;2023-12-20T05:34:38;10.21;9.03;6.61;3.54;28.42;28.28;27.71;24.87;16.90;0.88
82394;SPS30;72031;51.786;4.662;2023-12-20T05:37:03;9.08;8.09;6.05;3.43;27.54;27.42;26.94;24.53;17.32;0.84
82394;SPS30;72031;51.786;4.662;2023-12-20T05:39:29;9.61;8.57;6.42;3.67;29.44;29.32;28.81;26.28;18.64;0.84
82394;SPS30;72031;51.786;4.662;2023-12-20T05:41:56;9.04;8.09;6.15;3.63;29.12;29.01;28.55;26.25;18.99;0.82
82394;SPS30;72031;51.786;4.662;2023-12-20T05:44:22;9.08;8.13;6.18;3.67;29.39;29.28;28.82;26.52;19.22;0.82
82394;SPS30;72031;51.786;4.662;2023-12-20T05:46:47;9.91;8.80;6.51;3.59;28.83;28.70;28.16;25.46;17.66;0.88
82394;SPS30;72031;51.786;4.662;2023-12-20T05:49:13;9.63;8.58;6.43;3.67;29.45;29.33;28.82;26.28;18.62;0.85
82394;SPS30;72031;51.786;4.662;2023-12-20T05:51:39;9.58;8.56;6.46;3.76;30.13;30.01;29.51;27.03;19.37;0.84
82394;SPS30;72031;51.786;4.662;2023-12-20T05:54:05;10.25;9.14;6.86;3.94;31.58;31.45;30.91;28.23;20.07;0.84
82394;SPS30;72031;51.786;4.662;2023-12-20T05:56:30;10.02;8.95;6.76;3.93;31.49;31.36;30.84;28.25;20.23;0.83
82394;SPS30;72031;51.786;4.662;2023-12-20T05:58:56;10.25;9.15;6.88;3.96;31.73;31.60;31.06;28.38;20.20;0.84
82394;SPS30;72031;51.786;4.662;2023-12-20T06:01:21;10.06;8.97;6.73;3.86;30.93;30.81;30.28;27.64;19.63;0.84
82394;SPS30;72031;51.786;4.662;2023-12-20T06:03:47;9.83;8.78;6.61;3.83;30.70;30.58;30.06;27.51;19.66;0.84
82394;SPS30;72031;51.786;4.662;2023-12-20T06:06:12;9.95;8.93;6.81;4.07;32.65;32.53;32.02;29.52;21.49;0.81
82394;SPS30;72031;51.786;4.662;2023-12-20T06:08:38;9.69;8.67;6.56;3.84;30.77;30.65;30.15;27.66;19.89;0.81
82394;SPS30;72031;51.786;4.662;2023-12-20T06:11:04;10.25;9.15;6.88;3.96;31.77;31.65;31.11;28.43;20.25;0.82
82394;SPS30;72031;51.786;4.662;2023-12-20T06:13:30;10.25;9.12;6.81;3.85;30.87;30.73;30.19;27.46;19.33;0.84
82394;SPS30;72031;51.786;4.662;2023-12-20T06:15:58;10.39;9.25;6.90;3.89;31.19;31.05;30.50;27.73;19.49;0.85
82394;SPS30;72031;51.786;4.662;2023-12-20T06:18:24;10.70;9.53;7.13;4.05;32.45;32.31;31.74;28.91;20.42;0.84
82394;SPS30;72031;51.786;4.662;2023-12-20T06:20:50;10.36;9.26;7.00;4.09;32.79;32.66;32.12;29.45;21.16;0.83
82394;SPS30;72031;51.786;4.662;2023-12-20T06:23:34;10.14;9.06;6.84;3.97;31.83;31.70;31.18;28.55;20.44;0.83
82394;SPS30;72031;51.786;4.662;2023-12-20T06:26:04;10.67;9.50;7.09;4.01;32.17;32.04;31.47;28.63;20.17;0.84
82394;SPS30;72031;51.786;4.662;2023-12-20T06:28:30;10.40;9.27;6.93;3.94;31.57;31.43;30.88;28.13;19.87;0.85
82394;SPS30;72031;51.786;4.662;2023-12-20T06:30:57;10.39;9.25;6.91;3.91;31.38;31.25;30.69;27.93;19.69;0.85
82394;SPS30;72031;51.786;4.662;2023-12-20T06:33:23;10.72;9.50;7.01;3.83;30.75;30.61;30.02;27.08;18.67;0.87
82394;SPS30;72031;51.786;4.662;2023-12-20T06:36:00;10.94;9.66;7.04;3.72;29.86;29.71;29.10;26.02;17.51;0.90
82394;SPS30;72031;51.786;4.662;2023-12-20T06:38:26;9.97;8.81;6.42;3.40;27.28;27.14;26.58;23.77;16.01;0.89
82394;SPS30;72031;51.786;4.662;2023-12-20T06:40:54;11.03;9.75;7.12;3.79;30.39;30.24;29.62;26.53;17.93;0.90
82394;SPS30;72031;51.786;4.662;2023-12-20T06:43:22;11.62;10.23;7.38;3.78;30.34;30.18;29.51;26.16;17.20;0.92
82394;SPS30;72031;51.786;4.662;2023-12-20T06:45:48;11.45;10.11;7.35;3.85;30.93;30.77;30.12;26.88;17.98;0.89
82394;SPS30;72031;51.786;4.662;2023-12-20T06:48:13;10.86;9.65;7.16;3.98;31.95;31.81;31.22;28.29;19.72;0.86
82394;SPS30;72031;51.786;4.662;2023-12-20T06:50:39;10.78;9.54;6.98;3.73;29.90;29.75;29.15;26.14;17.72;0.90
82394;SPS30;72031;51.786;4.662;2023-12-20T06:53:06;10.65;9.43;6.91;3.71;29.79;29.65;29.05;26.09;17.77;0.88
82394;SPS30;72031;51.786;4.662;2023-12-20T06:55:33;11.10;9.81;7.18;3.83;30.71;30.56;29.94;26.84;18.18;0.89
82394;SPS30;72031;51.786;4.662;2023-12-20T06:58:01;11.86;10.42;7.46;3.73;29.94;29.77;29.07;25.60;16.50;0.94
82394;SPS30;72031;51.786;4.662;2023-12-20T07:00:28;12.72;11.16;7.96;3.93;31.54;31.36;30.61;26.85;17.12;0.95
82394;SPS30;72031;51.786;4.662;2023-12-20T07:02:54;10.53;9.31;6.79;3.60;28.89;28.75;28.15;25.19;16.99;0.90
82394;SPS30;72031;51.786;4.662;2023-12-20T07:05:19;9.34;8.26;6.05;3.25;26.05;25.93;25.41;22.81;15.52;0.90
82394;SPS30;72031;51.786;4.662;2023-12-20T07:07:45;8.73;7.75;5.74;3.18;25.47;25.36;24.89;22.52;15.64;0.86
82394;SPS30;72031;51.786;4.662;2023-12-20T07:10:12;11.44;10.14;7.46;4.06;32.57;32.41;31.78;28.63;19.66;0.87
82394;SPS30;72031;51.786;4.662;2023-12-20T07:12:39;11.38;10.06;7.34;3.90;31.31;31.15;30.51;27.32;18.46;0.88
82394;SPS30;72031;51.786;4.662;2023-12-20T07:15:05;10.34;9.12;6.61;3.44;27.62;27.47;26.88;23.93;15.92;0.91
82394;SPS30;72031;51.786;4.662;2023-12-20T07:17:32;12.23;10.79;7.85;4.12;33.06;32.89;32.19;28.73;19.24;0.91
82394;SPS30;72031;51.786;4.662;2023-12-20T07:19:58;13.04;11.51;8.36;4.38;35.13;34.95;34.21;30.51;20.39;0.91
82394;SPS30;72031;51.786;4.662;2023-12-20T07:22:29;11.38;10.05;7.32;3.86;30.96;30.81;30.16;26.95;18.10;0.90
82394;SPS30;72031;51.786;4.662;2023-12-20T07:25:02;11.63;10.25;7.42;3.84;30.83;30.67;30.00;26.67;17.67;0.91
82394;SPS30;72031;51.786;4.662;2023-12-20T07:27:31;10.78;9.54;6.99;3.75;30.08;29.94;29.34;26.34;17.92;0.87
82394;SPS30;72031;51.786;4.662;2023-12-20T07:29:56;10.04;8.94;6.68;3.79;30.37;30.24;29.71;27.04;19.07;0.84
82394;SPS30;72031;51.786;4.662;2023-12-20T07:32:22;10.70;9.56;7.21;4.18;33.51;33.38;32.82;30.04;21.49;0.82
82394;SPS30;72031;51.786;4.662;2023-12-20T07:34:47;10.86;9.67;7.21;4.07;32.64;32.50;31.92;29.03;20.42;0.85
82394;SPS30;72031;51.786;4.662;2023-12-20T07:37:14;10.76;9.57;7.15;4.03;32.35;32.21;31.64;28.77;20.25;0.85
82394;SPS30;72031;51.786;4.662;2023-12-20T07:39:40;11.24;10.00;7.45;4.19;33.60;33.46;32.85;29.85;20.95;0.85
82394;SPS30;72031;51.786;4.662;2023-12-20T07:42:09;11.36;10.04;7.34;3.90;31.31;31.16;30.52;27.33;18.48;0.89
82394;SPS30;72031;51.786;4.662;2023-12-20T07:44:44;10.97;9.70;7.08;3.76;30.19;30.04;29.42;26.34;17.79;0.88
82394;SPS30;72031;51.786;4.662;2023-12-20T07:47:11;11.88;10.47;7.57;3.91;31.38;31.22;30.53;27.13;17.94;0.90
82394;SPS30;72031;51.786;4.662;2023-12-20T07:49:40;11.58;10.24;7.49;3.99;32.00;31.85;31.20;27.95;18.92;0.88
82394;SPS30;72031;51.786;4.662;2023-12-20T07:52:06;11.15;9.87;7.23;3.88;31.11;30.96;30.34;27.23;18.52;0.87
82394;SPS30;72031;51.786;4.662;2023-12-20T07:54:33;10.95;9.73;7.24;4.05;32.45;32.30;31.71;28.77;20.12;0.84
82394;SPS30;72031;51.786;4.662;2023-12-20T07:56:58;11.08;9.85;7.32;4.08;32.70;32.56;31.96;28.97;20.22;0.85
82394;SPS30;72031;51.786;4.662;2023-12-20T07:59:24;11.19;9.93;7.36;4.07;32.63;32.48;31.87;28.84;20.03;0.85
82394;SPS30;72031;51.786;4.662;2023-12-20T08:01:49;10.97;9.73;7.17;3.92;31.42;31.28;30.67;27.66;19.05;0.85
82394;SPS30;72031;51.786;4.662;2023-12-20T08:04:15;10.52;9.33;6.89;3.79;30.37;30.23;29.66;26.78;18.52;0.86
82394;SPS30;72031;51.786;4.662;2023-12-20T08:06:41;10.81;9.56;7.02;3.78;30.29;30.15;29.55;26.55;18.10;0.88
82394;SPS30;72031;51.786;4.662;2023-12-20T08:09:07;11.07;9.78;7.12;3.74;30.03;29.88;29.26;26.12;17.52;0.89
82394;SPS30;72031;51.786;4.662;2023-12-20T08:11:32;11.59;10.29;7.61;4.20;33.67;33.52;32.88;29.73;20.61;0.86
82394;SPS30;72031;51.786;4.662;2023-12-20T08:13:58;11.68;10.36;7.65;4.19;33.60;33.45;32.81;29.61;20.43;0.86
82394;SPS30;72031;51.786;4.662;2023-12-20T08:16:24;11.75;10.41;7.68;4.19;33.61;33.46;32.81;29.59;20.37;0.87
82394;SPS30;72031;51.786;4.662;2023-12-20T08:18:50;11.47;10.18;7.52;4.13;33.10;32.95;32.32;29.19;20.17;0.88
82394;SPS30;72031;51.786;4.662;2023-12-20T08:21:18;10.12;9.05;6.85;4.01;32.12;31.99;31.47;28.87;20.76;0.83
82394;SPS30;72031;51.786;4.662;2023-12-20T08:23:45;10.31;9.19;6.87;3.90;31.30;31.17;30.62;27.89;19.70;0.84
82394;SPS30;72031;51.786;4.662;2023-12-20T08:26:12;12.41;10.99;8.09;4.40;35.30;35.14;34.45;31.04;21.31;0.85
82394;SPS30;72031;51.786;4.662;2023-12-20T08:28:38;11.76;10.45;7.74;4.29;34.37;34.22;33.58;30.39;21.12;0.85
82394;SPS30;72031;51.786;4.662;2023-12-20T08:31:05;11.59;10.28;7.58;4.14;33.21;33.06;32.42;29.24;20.14;0.88
82394;SPS30;72031;51.786;4.662;2023-12-20T08:33:30;12.40;11.00;8.12;4.45;35.72;35.56;34.87;31.48;21.74;0.89
82394;SPS30;72031;51.786;4.662;2023-12-20T08:35:56;9.51;8.47;6.33;3.59;28.83;28.71;28.20;25.68;18.13;0.86
82394;SPS30;72031;51.786;4.662;2023-12-20T08:38:21;10.87;9.62;7.05;3.79;30.38;30.24;29.63;26.61;18.11;0.90
82394;SPS30;72031;51.786;4.662;2023-12-20T08:40:48;11.84;10.50;7.74;4.23;33.97;33.82;33.16;29.92;20.63;0.88
82394;SPS30;72031;51.786;4.662;2023-12-20T08:43:14;11.54;10.25;7.61;4.24;33.97;33.82;33.20;30.08;20.97;0.86
82394;SPS30;72031;51.786;4.662;2023-12-20T08:45:39;11.17;9.90;7.30;3.98;31.96;31.82;31.20;28.13;19.37;0.86
82394;SPS30;72031;51.786;4.662;2023-12-20T08:48:06;10.42;9.26;6.90;3.86;30.98;30.85;30.29;27.49;19.25;0.86
82394;SPS30;72031;51.786;4.662;2023-12-20T08:50:32;10.69;9.47;6.95;3.75;30.10;29.96;29.36;26.40;18.03;0.88
82394;SPS30;72031;51.786;4.662;2023-12-20T08:52:57;11.82;10.45;7.66;4.10;32.90;32.74;32.08;28.79;19.56;0.88
82394;SPS30;72031;51.786;4.662;2023-12-20T08:55:23;10.15;8.99;6.61;3.57;28.68;28.54;27.98;25.18;17.23;0.88
82394;SPS30;72031;51.786;4.662;2023-12-20T08:57:48;12.44;10.97;7.95;4.13;33.13;32.96;32.24;28.69;19.06;0.91
82394;SPS30;72031;51.786;4.662;2023-12-20T09:00:16;10.18;9.04;6.69;3.69;29.58;29.45;28.89;26.12;18.11;0.86
82394;SPS30;72031;51.786;4.662;2023-12-20T09:02:43;9.73;8.65;6.43;3.60;28.84;28.71;28.18;25.57;17.88;0.86
82394;SPS30;72031;51.786;4.662;2023-12-20T09:05:08;11.16;9.90;7.32;4.02;32.28;32.13;31.52;28.48;19.70;0.86